createdAt,value
2023-01-22T00:00:25.803Z,53
2023-01-22T00:03:31.089Z,70
2023-01-22T00:05:59.329Z,64
2023-01-22T00:09:04.740Z,67
2023-01-22T00:15:15.272Z,60
2023-01-22T00:18:20.588Z,67
2023-01-22T00:20:48.845Z,64
2023-01-22T00:25:45.657Z,70
2023-01-22T00:28:13.583Z,50
2023-01-22T00:31:56.094Z,74
2023-01-22T00:35:01.280Z,71
2023-01-22T00:38:06.605Z,77
2023-01-22T00:40:38.934Z,72
2023-01-22T00:44:21.272Z,66
2023-01-22T00:46:49.593Z,61
2023-01-22T00:49:17.795Z,59
2023-01-22T00:52:23.099Z,57
2023-01-22T00:55:28.446Z,63
2023-01-22T00:57:56.673Z,62
2023-01-22T01:00:24.875Z,60
2023-01-22T01:02:53.142Z,64
2023-01-22T01:05:21.422Z,62
2023-01-22T01:09:03.741Z,62
2023-01-22T01:12:09.051Z,63
2023-01-22T01:15:14.346Z,58
2023-01-22T01:20:02.672Z,76
2023-01-22T01:23:07.967Z,72
2023-01-22T01:28:04.589Z,67
2023-01-22T01:33:00.980Z,65
2023-01-22T01:37:57.497Z,68
2023-01-22T01:44:08.093Z,70
2023-01-22T01:49:04.637Z,73
2023-01-22T01:54:01.115Z,67
2023-01-22T01:58:57.597Z,84
2023-01-22T02:02:02.943Z,84
2023-01-22T02:05:08.207Z,71
2023-01-22T02:08:13.606Z,63
2023-01-22T02:11:55.876Z,53
2023-01-22T02:15:01.158Z,70
2023-01-22T02:19:49.487Z,64
2023-01-22T02:26:00.127Z,72
2023-01-22T02:30:56.705Z,48
2023-01-22T02:34:01.980Z,58
2023-01-22T02:37:07.245Z,73
2023-01-22T02:40:12.509Z,49
2023-01-22T02:43:54.899Z,47
2023-01-22T02:47:00.215Z,50
2023-01-22T02:50:05.498Z,69
2023-01-22T02:53:10.789Z,69
2023-01-22T02:56:16.109Z,65
2023-01-22T03:02:26.805Z,72
2023-01-22T03:05:32.059Z,52
2023-01-22T03:08:00.299Z,61
2023-01-22T03:12:56.811Z,74
2023-01-22T03:16:02.101Z,61
2023-01-22T03:18:59.197Z,58
2023-01-22T03:22:04.505Z,64
2023-01-22T03:25:09.934Z,50
2023-01-22T03:27:38.105Z,67
2023-01-22T03:30:06.352Z,56
2023-01-22T03:32:34.596Z,51
2023-01-22T03:35:39.899Z,60
2023-01-22T03:38:08.178Z,66
2023-01-22T03:41:13.445Z,43
2023-01-22T03:44:55.852Z,56
2023-01-22T03:47:24.078Z,55
2023-01-22T03:50:29.377Z,65
2023-01-22T03:52:57.645Z,52
2023-01-22T03:55:25.845Z,52
2023-01-22T03:57:54.116Z,58
2023-01-22T04:00:59.449Z,59
2023-01-22T04:04:04.715Z,61
2023-01-22T04:07:47.113Z,76
2023-01-22T04:11:29.490Z,78
2023-01-22T04:14:34.809Z,58
2023-01-22T04:17:03.039Z,67
2023-01-22T04:19:31.297Z,68
2023-01-22T04:21:59.532Z,51
2023-01-22T04:25:04.836Z,48
2023-01-22T04:28:10.148Z,50
2023-01-22T04:34:20.760Z,41
2023-01-22T04:37:26.064Z,54
2023-01-22T04:39:54.300Z,43
2023-01-22T04:43:20.335Z,73
2023-01-22T04:45:48.670Z,48
2023-01-22T04:50:07.986Z,54
2023-01-22T04:55:04.487Z,42
2023-01-22T04:57:32.719Z,40
2023-01-22T05:02:29.243Z,47
2023-01-22T05:04:57.501Z,46
2023-01-22T05:07:25.745Z,57
2023-01-22T05:11:08.080Z,37
2023-01-22T05:21:01.057Z,38
2023-01-22T05:33:22.284Z,32
2023-01-22T05:35:50.568Z,43
2023-01-22T05:38:18.792Z,38
2023-01-22T05:41:07.762Z,34
2023-01-22T05:43:35.981Z,32
2023-01-22T05:46:04.249Z,30
2023-01-22T05:49:09.613Z,29
2023-01-22T05:52:51.912Z,39
2023-01-22T05:55:20.206Z,30
2023-01-22T05:57:48.405Z,42
2023-01-22T06:00:16.923Z,31
2023-01-22T06:02:44.994Z,26
2023-01-22T06:08:55.523Z,34
2023-01-22T06:15:06.153Z,37
2023-01-22T06:18:11.444Z,35
2023-01-22T06:21:20.827Z,40
2023-01-22T06:23:49.091Z,26
2023-01-22T06:26:17.385Z,28
2023-01-22T06:28:45.615Z,32
2023-01-22T06:33:05.018Z,32
2023-01-22T06:36:10.348Z,28
2023-01-22T06:41:02.723Z,34
2023-01-22T06:44:08.044Z,36
2023-01-22T06:47:13.380Z,28
2023-01-22T06:49:41.630Z,27
2023-01-22T06:52:09.884Z,32
2023-01-22T06:57:06.340Z,45
2023-01-22T07:02:02.820Z,44
2023-01-22T07:05:08.134Z,31
2023-01-22T07:08:13.489Z,31
2023-01-22T07:11:55.792Z,28
2023-01-22T07:15:01.119Z,26
2023-01-22T07:18:06.424Z,38
2023-01-22T07:23:02.920Z,23
2023-01-22T07:27:59.445Z,33
2023-01-22T07:34:10.063Z,32
2023-01-22T07:36:38.284Z,35
2023-01-22T07:39:43.625Z,27
2023-01-22T07:43:25.978Z,28
2023-01-22T07:45:54.195Z,25
2023-01-22T07:48:59.532Z,27
2023-01-22T07:52:04.887Z,33
2023-01-22T07:55:10.147Z,26
2023-01-22T08:00:06.659Z,30
2023-01-22T08:06:17.241Z,36
2023-01-22T08:08:45.519Z,27
2023-01-22T08:13:25.578Z,26
2023-01-22T08:15:53.866Z,52
2023-01-22T08:18:59.221Z,36
2023-01-22T08:22:04.476Z,26
2023-01-22T08:25:09.801Z,37
2023-01-22T08:28:15.079Z,28
2023-01-22T08:30:46.613Z,25
2023-01-22T08:34:25.713Z,29
2023-01-22T08:36:53.952Z,25
2023-01-22T08:39:22.202Z,25
2023-01-22T08:43:04.585Z,31
2023-01-22T08:46:09.897Z,33
2023-01-22T08:49:15.179Z,33
2023-01-22T08:52:20.482Z,33
2023-01-22T08:55:25.819Z,29
2023-01-22T08:58:31.111Z,35
2023-01-22T09:00:59.447Z,38
2023-01-22T09:04:04.668Z,23
2023-01-22T09:09:01.139Z,30
2023-01-22T09:12:43.561Z,36
2023-01-22T09:16:25.913Z,31
2023-01-22T09:18:54.159Z,28
2023-01-22T09:21:22.442Z,35
2023-01-22T09:24:11.342Z,26
2023-01-22T09:27:16.658Z,29
2023-01-22T09:30:59.045Z,27
2023-01-22T09:34:04.371Z,27
2023-01-22T09:37:09.646Z,32
2023-01-22T09:40:14.950Z,27
2023-01-22T09:45:11.527Z,30
2023-01-22T09:48:16.744Z,69
2023-01-22T09:51:59.123Z,30
2023-01-22T09:55:04.404Z,27
2023-01-22T09:57:32.706Z,30
2023-01-22T10:02:29.261Z,27
2023-01-22T10:04:57.426Z,28
2023-01-22T10:07:25.691Z,24
2023-01-22T10:09:53.888Z,37
2023-01-22T10:21:38.074Z,40
2023-01-22T10:28:38.262Z,26
2023-01-22T10:31:43.660Z,26
2023-01-22T10:35:25.905Z,38
2023-01-22T10:37:54.232Z,22
2023-01-22T10:40:22.427Z,26
2023-01-22T10:42:50.680Z,25
2023-01-22T10:45:56.050Z,31
2023-01-22T10:49:01.328Z,26
2023-01-22T10:52:06.652Z,35
2023-01-22T10:56:26.013Z,44
2023-01-22T10:58:54.289Z,37
2023-01-22T11:01:22.620Z,33
2023-01-22T11:03:50.778Z,43
2023-01-22T11:06:19.136Z,39
2023-01-22T11:10:01.403Z,36
2023-01-22T11:13:06.699Z,44
2023-01-22T11:16:12.098Z,44
2023-01-22T11:21:08.509Z,28
2023-01-22T11:24:05.637Z,44
2023-01-22T11:29:02.119Z,30
2023-01-22T11:31:30.503Z,29
2023-01-22T11:33:58.676Z,36
2023-01-22T11:36:26.851Z,32
2023-01-22T11:38:55.094Z,29
2023-01-22T11:41:23.367Z,27
2023-01-22T11:45:05.729Z,34
2023-01-22T11:48:11.008Z,32
2023-01-22T11:51:16.480Z,30
2023-01-22T11:54:58.739Z,65
2023-01-22T11:58:04.059Z,32
2023-01-22T12:01:09.393Z,31
2023-01-22T12:04:14.627Z,29
2023-01-22T12:07:57.014Z,30
2023-01-22T12:10:25.221Z,29
2023-01-22T12:12:53.549Z,25
2023-01-22T12:15:22.296Z,38
2023-01-22T12:17:49.991Z,38
2023-01-22T12:20:18.523Z,31
2023-01-22T12:25:06.739Z,28
2023-01-22T12:28:11.958Z,28
2023-01-22T12:32:31.266Z,25
2023-01-22T12:34:59.564Z,35
2023-01-22T12:37:27.864Z,27
2023-01-22T12:39:56.012Z,25
2023-01-22T12:42:24.258Z,29
2023-01-22T12:46:06.730Z,32
2023-01-22T12:49:11.970Z,26
2023-01-22T12:52:54.447Z,33
2023-01-22T12:57:13.784Z,28
2023-01-22T13:00:56.228Z,47
2023-01-22T13:04:01.415Z,25
2023-01-22T13:07:06.732Z,33
2023-01-22T13:10:12.078Z,29
2023-01-22T13:13:56.689Z,33
2023-01-22T13:16:59.746Z,25
2023-01-22T13:20:05.667Z,29
2023-01-22T13:24:24.473Z,26
2023-01-22T13:26:52.747Z,31
2023-01-22T13:29:20.954Z,24
2023-01-22T13:33:40.712Z,20
2023-01-22T13:36:08.668Z,23
2023-01-22T13:39:13.965Z,27
2023-01-22T13:42:56.421Z,29
2023-01-22T13:46:01.655Z,27
2023-01-22T13:49:06.987Z,30
2023-01-22T13:51:35.210Z,33
2023-01-22T13:54:03.523Z,36
2023-01-22T13:56:31.743Z,28
2023-01-22T13:58:59.948Z,29
2023-01-22T14:01:28.362Z,32
2023-01-22T14:03:56.459Z,37
2023-01-22T14:07:01.763Z,47
2023-01-22T14:11:12.989Z,37
2023-01-22T14:13:41.342Z,25
2023-01-22T14:18:00.712Z,30
2023-01-22T14:22:20.378Z,31
2023-01-22T14:25:25.603Z,33
2023-01-22T14:29:07.809Z,46
2023-01-22T14:32:13.099Z,29
2023-01-22T14:35:55.526Z,40
2023-01-22T14:39:00.802Z,51
2023-01-22T14:41:29.048Z,54
2023-01-22T14:43:57.327Z,37
2023-01-22T14:46:25.522Z,30
2023-01-22T14:48:53.819Z,34
2023-01-22T14:53:13.223Z,31
2023-01-22T14:58:09.671Z,37
2023-01-22T15:00:38.359Z,35
2023-01-22T15:04:20.378Z,33
2023-01-22T15:06:48.523Z,43
2023-01-22T15:09:37.499Z,34
2023-01-22T15:12:05.709Z,39
2023-01-22T15:15:11.218Z,35
2023-01-22T15:18:53.425Z,32
2023-01-22T15:21:58.979Z,30
2023-01-22T15:24:26.946Z,31
2023-01-22T15:26:55.393Z,32
2023-01-22T15:29:23.468Z,31
2023-01-22T15:31:51.758Z,34
2023-01-22T15:34:56.998Z,38
2023-01-22T15:38:02.589Z,47
2023-01-22T15:42:58.813Z,40
2023-01-22T15:47:55.309Z,37
2023-01-22T15:51:00.645Z,34
2023-01-22T15:54:05.933Z,38
2023-01-22T15:59:02.495Z,46
2023-01-22T16:03:21.870Z,34
2023-01-22T16:06:27.212Z,43
2023-01-22T16:08:55.430Z,50
2023-01-22T16:12:00.921Z,38
2023-01-22T16:15:06.047Z,34
2023-01-22T16:18:48.447Z,36
2023-01-22T16:21:16.644Z,42
2023-01-22T16:24:21.971Z,53
2023-01-22T16:26:50.571Z,39
2023-01-22T16:30:16.440Z,41
2023-01-22T16:33:58.541Z,40
2023-01-22T16:37:03.884Z,43
2023-01-22T16:40:09.264Z,53
2023-01-22T16:43:14.468Z,39
2023-01-22T16:46:56.843Z,41
2023-01-22T16:51:16.383Z,43
2023-01-22T16:54:58.679Z,43
2023-01-22T16:58:03.957Z,34
2023-01-22T17:01:09.539Z,37
2023-01-22T17:04:14.585Z,42
2023-01-22T17:07:56.945Z,35
2023-01-22T17:11:02.427Z,29
2023-01-22T17:14:08.017Z,32
2023-01-22T17:19:04.134Z,46
2023-01-22T17:22:09.381Z,34
2023-01-22T17:25:14.879Z,37
2023-01-22T17:28:57.018Z,38
2023-01-22T17:31:54.206Z,34
2023-01-22T17:34:59.471Z,47
2023-01-22T17:38:04.809Z,38
2023-01-22T17:41:10.110Z,39
2023-01-22T17:46:06.615Z,45
2023-01-22T17:49:12.872Z,41
2023-01-22T17:52:54.284Z,34
2023-01-22T17:55:59.554Z,37
2023-01-22T18:00:56.060Z,33
2023-01-22T18:05:15.533Z,36
2023-01-22T18:07:43.759Z,34
2023-01-22T18:11:26.123Z,40
2023-01-22T18:13:54.460Z,37
2023-01-22T18:16:59.671Z,49
2023-01-22T18:20:04.993Z,40
2023-01-22T18:23:10.423Z,50
2023-01-22T18:28:06.874Z,43
2023-01-22T18:31:12.212Z,38
2023-01-22T18:34:54.489Z,33
2023-01-22T18:37:59.772Z,43
2023-01-22T18:40:56.907Z,55
2023-01-22T18:44:02.257Z,54
2023-01-22T18:47:07.493Z,58
2023-01-22T18:51:27.218Z,51
2023-01-22T18:53:55.321Z,41
2023-01-22T18:56:23.451Z,45
2023-01-22T18:59:28.728Z,42
2023-01-22T19:01:57.056Z,32
2023-01-22T19:05:02.602Z,43
2023-01-22T19:09:58.797Z,41
2023-01-22T19:14:18.252Z,48
2023-01-22T19:16:46.480Z,44
2023-01-22T19:20:29.190Z,51
2023-01-22T19:23:34.193Z,53
2023-01-22T19:26:02.639Z,53
2023-01-22T19:29:07.754Z,44
2023-01-22T19:32:13.049Z,58
2023-01-22T19:35:56.079Z,48
2023-01-22T19:40:51.919Z,47
2023-01-22T19:43:20.265Z,47
2023-01-22T19:45:48.383Z,40
2023-01-22T19:48:53.777Z,44
2023-01-22T19:51:22.193Z,51
2023-01-22T19:54:10.878Z,47
2023-01-22T19:56:39.184Z,45
2023-01-22T20:00:58.591Z,51
2023-01-22T20:04:03.851Z,44
2023-01-22T20:07:09.165Z,46
2023-01-22T20:11:28.607Z,43
2023-01-22T20:13:57.023Z,44
2023-01-22T20:16:25.155Z,49
2023-01-22T20:18:53.470Z,49
2023-01-22T20:21:58.631Z,49
2023-01-22T20:25:03.961Z,59
2023-01-22T20:28:09.343Z,57
2023-01-22T20:31:14.694Z,55
2023-01-22T20:34:20.173Z,55
2023-01-22T20:36:48.122Z,47
2023-01-22T20:41:02.983Z,49
2023-01-22T20:42:58.746Z,53
2023-01-22T20:45:27.500Z,51
2023-01-22T20:47:55.222Z,54
2023-01-22T20:51:00.666Z,50
2023-01-22T20:54:05.861Z,34
2023-01-22T20:57:11.399Z,57
2023-01-22T21:00:16.476Z,66
2023-01-22T21:05:04.779Z,62
2023-01-22T21:08:10.096Z,91
2023-01-22T21:12:30.109Z,69
2023-01-22T21:14:57.921Z,57
2023-01-22T21:17:25.982Z,69
2023-01-22T21:20:31.492Z,72
2023-01-22T21:24:13.682Z,65
2023-01-22T21:27:56.056Z,71
2023-01-22T21:31:01.483Z,65
2023-01-22T21:34:06.702Z,58
2023-01-22T21:37:11.986Z,67
2023-01-22T21:40:17.686Z,87
2023-01-22T21:43:59.657Z,73
2023-01-22T21:47:04.964Z,87
2023-01-22T21:50:10.344Z,75
2023-01-22T21:54:29.699Z,64
2023-01-22T21:56:58.190Z,70
2023-01-22T21:59:26.208Z,85
2023-01-22T22:01:54.695Z,72
2023-01-22T22:04:22.719Z,59
2023-01-22T22:06:51.072Z,72
2023-01-22T22:09:56.243Z,71
2023-01-22T22:14:15.710Z,73
2023-01-22T22:17:21.249Z,70
2023-01-22T22:19:49.250Z,68
2023-01-22T22:22:17.578Z,71
2023-01-22T22:25:06.432Z,65
2023-01-22T22:28:11.733Z,70
2023-01-22T22:31:54.368Z,64
2023-01-22T22:34:59.416Z,69
2023-01-22T22:38:05.194Z,76
2023-01-22T22:42:24.425Z,77
2023-01-22T22:45:29.464Z,72
2023-01-22T22:49:11.845Z,75
2023-01-22T22:52:54.305Z,99
2023-01-22T22:55:59.504Z,71
2023-01-22T22:59:04.824Z,77
2023-01-22T23:03:24.390Z,93
2023-01-22T23:05:52.518Z,82
2023-01-22T23:08:21.108Z,66
2023-01-22T23:10:49.020Z,73
2023-01-22T23:13:17.369Z,67
2023-01-22T23:16:59.999Z,83
2023-01-22T23:20:04.903Z,68
2023-01-22T23:23:10.228Z,71
2023-01-22T23:26:07.364Z,91
2023-01-22T23:29:12.780Z,84
2023-01-22T23:32:55.049Z,82
2023-01-22T23:36:00.318Z,77
2023-01-22T23:40:20.089Z,77
2023-01-22T23:42:48.006Z,84
2023-01-22T23:47:07.470Z,79
2023-01-22T23:49:35.727Z,80
2023-01-22T23:52:03.962Z,103
2023-01-22T23:55:10.191Z,92
2023-01-22T23:58:14.579Z,104
